Time;durP1;ratioP1;P1;durP2;ratioP2;P2;SDS_P1;SDS_P2;PMS_P1;PMS_P2;Temp;Humidity;BMP_temperature;BMP_pressure;BME280_temperature;BME280_humidity;BME280_pressure;Samples;Min_cycle;Max_cycle;Signal;HPM_P1;HPM_P2
2022/04/22 00:00:06;;;;;;;;;;;9.00;90.80;;;;;;5142700;27;19924;-66
2022/04/22 00:02:31;;;;;;;;;;;9.00;90.90;;;;;;5142282;28;19914;-66
2022/04/22 00:04:57;;;;;;;;;;;8.90;91.20;;;;;;5141988;28;19908;-67
2022/04/22 00:07:23;;;;;;;;;;;8.80;91.30;;;;;;5121725;28;20244;-66
2022/04/22 00:09:48;;;;;;;;;;;8.90;91.20;;;;;;5122046;28;19956;-67
2022/04/22 00:12:14;;;;;;;;;;;8.90;91.00;;;;;;5127892;28;19914;-67
2022/04/22 00:14:40;;;;;;;;;;;8.90;91.10;;;;;;5142485;28;19915;-66
2022/04/22 00:17:05;;;;;;;;;;;8.80;91.40;;;;;;5142413;28;19915;-66
2022/04/22 00:19:31;;;;;;;;;;;8.70;91.70;;;;;;5142633;28;19907;-67
2022/04/22 00:21:57;;;;;;;;;;;8.70;91.50;;;;;;5142081;28;20009;-66
2022/04/22 00:24:23;;;;;;;;;;;8.70;91.50;;;;;;5142549;28;20304;-66
2022/04/22 00:26:48;;;;;;;;;;;8.60;91.50;;;;;;5143039;28;20157;-67
2022/04/22 00:29:14;;;;;;;;;;;8.60;91.70;;;;;;5142498;28;20202;-66
2022/04/22 00:31:40;;;;;;;;;;;8.60;91.80;;;;;;5142142;28;19915;-67
2022/04/22 00:34:05;;;;;;;;;;;8.60;91.80;;;;;;5124202;28;19911;-66
2022/04/22 00:36:31;;;;;;;;;;;8.60;91.80;;;;;;5127479;28;19987;-66
2022/04/22 00:38:57;;;;;;;;;;;8.80;91.50;;;;;;5121632;28;20195;-67
2022/04/22 00:41:22;;;;;;;;;;;8.70;91.40;;;;;;5121495;28;19915;-65
2022/04/22 00:43:53;;;;;;;;;;;8.70;91.50;;;;;;5128495;28;19974;-65
2022/04/22 00:46:19;;;;;;;;;;;8.70;91.60;;;;;;5142695;28;20128;-66
2022/04/22 00:48:44;;;;;;;;;;;8.70;91.60;;;;;;5142148;28;19922;-66
2022/04/22 00:51:10;;;;;;;;;;;8.80;91.50;;;;;;5141695;28;19949;-66
2022/04/22 00:53:36;;;;;;;;;;;8.80;91.60;;;;;;5142113;28;19914;-66
2022/04/22 00:56:03;;;;;;;;;;;8.90;91.50;;;;;;5141972;28;19911;-66
2022/04/22 00:58:29;;;;;;;;;;;8.90;91.30;;;;;;5142077;28;19971;-66
2022/04/22 01:00:54;;;;;;;;;;;9.00;90.80;;;;;;5141853;28;20360;-65
2022/04/22 01:03:20;;;;;;;;;;;9.00;90.90;;;;;;5141970;28;19919;-66
2022/04/22 01:11:15;;;;;;;;;;;9.10;90.60;;;;;;5109296;28;19970;-66
2022/04/22 01:13:41;;;;;;;;;;;9.10;90.60;;;;;;5106752;28;19989;-66
2022/04/22 01:16:06;;;;;;;;;;;9.00;90.60;;;;;;5138413;27;19912;-66
2022/04/22 01:18:32;;;;;;;;;;;9.00;90.80;;;;;;5145481;27;19970;-66
2022/04/22 01:21:01;;;;;;;;;;;9.10;90.50;;;;;;5144861;27;19960;-66
2022/04/22 01:23:27;;;;;;;;;;;9.00;90.60;;;;;;5145422;27;19908;-66
2022/04/22 01:25:53;;;;;;;;;;;9.00;90.60;;;;;;5145375;27;20106;-66
2022/04/22 01:28:20;;;;;;;;;;;9.00;90.50;;;;;;5145280;27;19908;-66
2022/04/22 01:30:46;;;;;;;;;;;8.90;90.70;;;;;;5126842;27;19919;-66
2022/04/22 01:33:11;;;;;;;;;;;8.90;90.70;;;;;;5145169;27;19914;-66
2022/04/22 01:35:37;;;;;;;;;;;8.90;90.80;;;;;;5138031;27;20102;-66
2022/04/22 01:38:03;;;;;;;;;;;8.80;90.90;;;;;;5124264;28;19974;-66
2022/04/22 01:40:29;;;;;;;;;;;8.90;90.70;;;;;;5124301;28;19907;-66
2022/04/22 01:42:55;;;;;;;;;;;8.90;90.80;;;;;;5124354;28;19955;-66
2022/04/22 01:45:21;;;;;;;;;;;8.80;90.80;;;;;;5124182;28;19911;-67
2022/04/22 01:47:47;;;;;;;;;;;8.90;90.60;;;;;;5124226;28;20113;-67
2022/04/22 01:50:12;;;;;;;;;;;8.90;90.60;;;;;;5124179;28;19912;-66
2022/04/22 01:52:40;;;;;;;;;;;8.80;90.60;;;;;;5123642;28;19946;-66
2022/04/22 01:55:06;;;;;;;;;;;8.70;90.90;;;;;;5124186;28;19914;-66
2022/04/22 01:57:32;;;;;;;;;;;8.60;91.00;;;;;;5123995;28;19912;-66
2022/04/22 01:59:59;;;;;;;;;;;8.50;91.20;;;;;;5123916;28;19912;-67
2022/04/22 02:02:24;;;;;;;;;;;8.40;91.40;;;;;;5123742;28;19920;-66
2022/04/22 02:04:50;;;;;;;;;;;8.30;91.50;;;;;;5123962;28;20106;-67
2022/04/22 02:07:16;;;;;;;;;;;8.20;91.60;;;;;;5123562;28;19978;-67
2022/04/22 02:09:41;;;;;;;;;;;8.20;91.90;;;;;;5123922;28;19983;-66
2022/04/22 02:12:07;;;;;;;;;;;8.10;91.90;;;;;;5123617;28;19908;-66
2022/04/22 02:14:36;;;;;;;;;;;8.10;91.90;;;;;;5123637;28;19908;-66
2022/04/22 02:17:01;;;;;;;;;;;8.10;92.10;;;;;;5123516;28;19943;-65
2022/04/22 02:19:27;;;;;;;;;;;8.00;92.10;;;;;;5122715;28;19923;-66
2022/04/22 02:21:53;;;;;;;;;;;8.00;92.10;;;;;;5122964;28;19917;-66
2022/04/22 02:24:18;;;;;;;;;;;7.90;92.10;;;;;;5123470;28;19931;-66
2022/04/22 02:29:28;;;;;;;;;;;7.90;92.30;;;;;;5123369;28;20042;-66
2022/04/22 02:31:54;;;;;;;;;;;7.80;92.50;;;;;;5122971;28;19916;-66
2022/04/22 02:34:20;;;;;;;;;;;7.80;92.50;;;;;;5123243;28;19983;-67
2022/04/22 02:36:46;;;;;;;;;;;7.80;92.60;;;;;;5122060;28;19947;-66
2022/04/22 02:39:12;;;;;;;;;;;7.70;92.80;;;;;;5123026;28;19908;-66
2022/04/22 02:47:06;;;;;;;;;;;7.50;93.10;;;;;;5123158;28;19961;-66
2022/04/22 02:49:32;;;;;;;;;;;7.50;93.30;;;;;;5104940;28;19975;-66
2022/04/22 02:51:58;;;;;;;;;;;7.40;93.30;;;;;;5122526;28;20187;-67
2022/04/22 02:54:24;;;;;;;;;;;7.50;93.20;;;;;;5122812;28;19908;-66
2022/04/22 02:56:50;;;;;;;;;;;7.40;93.40;;;;;;5122785;28;20214;-66
2022/04/22 02:59:17;;;;;;;;;;;7.30;93.40;;;;;;5105011;28;19931;-66
2022/04/22 03:01:43;;;;;;;;;;;7.30;93.50;;;;;;5122503;28;19907;-65
2022/04/22 03:04:09;;;;;;;;;;;7.20;93.50;;;;;;5104467;28;19938;-66
2022/04/22 03:06:35;;;;;;;;;;;7.20;93.60;;;;;;5104268;28;19965;-65
2022/04/22 03:09:01;;;;;;;;;;;7.10;93.70;;;;;;5122489;28;20202;-65
2022/04/22 03:11:27;;;;;;;;;;;7.10;93.70;;;;;;5122398;28;19991;-65
2022/04/22 03:13:53;;;;;;;;;;;7.10;93.80;;;;;;5122519;28;19907;-65
2022/04/22 03:16:19;;;;;;;;;;;7.00;93.80;;;;;;5122449;28;19912;-65
2022/04/22 03:18:45;;;;;;;;;;;7.00;93.90;;;;;;5122430;28;19923;-65
2022/04/22 03:21:11;;;;;;;;;;;6.90;94.00;;;;;;5122033;28;20144;-65
2022/04/22 03:23:37;;;;;;;;;;;6.90;94.10;;;;;;5122429;28;20119;-65
2022/04/22 03:26:02;;;;;;;;;;;6.90;94.10;;;;;;5122680;28;19908;-66
2022/04/22 03:28:28;;;;;;;;;;;6.90;94.00;;;;;;5122424;28;19908;-65
2022/04/22 03:30:54;;;;;;;;;;;7.00;94.10;;;;;;5122126;28;20045;-65
2022/04/22 03:33:20;;;;;;;;;;;6.90;94.00;;;;;;5122399;28;20229;-66
2022/04/22 03:35:50;;;;;;;;;;;7.00;94.00;;;;;;5121283;28;19908;-65
2022/04/22 03:38:19;;;;;;;;;;;6.90;94.10;;;;;;5104459;28;19911;-65
2022/04/22 03:40:49;;;;;;;;;;;7.00;93.90;;;;;;5121275;28;20472;-65
2022/04/22 03:43:15;;;;;;;;;;;6.90;94.00;;;;;;5122185;28;19960;-65
2022/04/22 03:45:41;;;;;;;;;;;6.80;94.10;;;;;;5122123;28;20141;-66
2022/04/22 03:48:08;;;;;;;;;;;6.80;94.30;;;;;;5121943;28;20036;-66
2022/04/22 03:50:34;;;;;;;;;;;6.80;94.20;;;;;;5121984;28;19920;-66
2022/04/22 03:53:00;;;;;;;;;;;6.80;94.20;;;;;;5122176;28;19922;-65
2022/04/22 03:55:26;;;;;;;;;;;6.80;94.30;;;;;;5122128;28;19943;-65
2022/04/22 03:58:10;;;;;;;;;;;6.80;94.40;;;;;;5121958;28;20087;-65
2022/04/22 04:00:49;;;;;;;;;;;6.70;94.40;;;;;;5121766;28;19908;-65
2022/04/22 04:03:16;;;;;;;;;;;6.70;94.50;;;;;;5120710;28;19916;-65
2022/04/22 04:05:50;;;;;;;;;;;6.60;94.60;;;;;;5121144;28;19912;-65
2022/04/22 04:08:20;;;;;;;;;;;6.60;94.70;;;;;;5122853;28;19915;-66
2022/04/22 04:16:15;;;;;;;;;;;6.50;94.90;;;;;;5121247;28;20115;-66
2022/04/22 04:18:41;;;;;;;;;;;6.50;94.90;;;;;;5122739;28;19908;-66
2022/04/22 04:23:52;;;;;;;;;;;6.50;95.00;;;;;;5122882;28;19915;-66
2022/04/22 04:26:19;;;;;;;;;;;6.50;94.90;;;;;;5122770;28;19908;-66
2022/04/22 04:28:47;;;;;;;;;;;6.50;94.80;;;;;;5122761;28;19937;-66
2022/04/22 04:31:13;;;;;;;;;;;6.50;94.90;;;;;;5122440;28;19915;-66
2022/04/22 04:33:38;;;;;;;;;;;6.50;95.00;;;;;;5122658;28;19907;-67
2022/04/22 04:36:04;;;;;;;;;;;6.50;95.10;;;;;;5121726;28;19996;-66
2022/04/22 04:38:31;;;;;;;;;;;6.60;95.00;;;;;;5122390;28;19926;-66
2022/04/22 04:40:57;;;;;;;;;;;6.60;95.00;;;;;;5122505;28;20203;-66
2022/04/22 04:43:22;;;;;;;;;;;6.70;94.90;;;;;;5126618;28;19974;-66
2022/04/22 04:45:50;;;;;;;;;;;6.70;94.80;;;;;;5126405;28;19959;-66
2022/04/22 04:48:16;;;;;;;;;;;6.70;94.90;;;;;;5126454;28;19914;-66
2022/04/22 04:50:46;;;;;;;;;;;6.70;94.90;;;;;;5125926;28;19978;-66
2022/04/22 04:53:14;;;;;;;;;;;6.70;94.80;;;;;;5135189;27;19914;-66
2022/04/22 04:55:40;;;;;;;;;;;6.80;94.80;;;;;;5146886;27;20118;-66
2022/04/22 04:58:06;;;;;;;;;;;6.80;94.80;;;;;;5146708;27;19928;-66
2022/04/22 05:00:31;;;;;;;;;;;6.90;94.60;;;;;;5146649;27;19943;-66
2022/04/22 05:02:57;;;;;;;;;;;7.00;94.40;;;;;;5146547;27;19922;-66
2022/04/22 05:05:23;;;;;;;;;;;7.00;94.20;;;;;;5145734;27;19907;-66
2022/04/22 05:07:59;;;;;;;;;;;7.00;94.60;;;;;;5125918;28;19908;-66
2022/04/22 05:10:26;;;;;;;;;;;7.10;94.40;;;;;;5126057;28;19923;-66
2022/04/22 05:12:52;;;;;;;;;;;7.20;94.30;;;;;;5126804;27;19983;-66
2022/04/22 05:15:18;;;;;;;;;;;7.20;94.10;;;;;;5146097;27;19907;-66
2022/04/22 05:17:44;;;;;;;;;;;7.30;94.00;;;;;;5105787;28;19924;-65
2022/04/22 05:20:11;;;;;;;;;;;7.30;93.90;;;;;;5122272;28;20118;-65
2022/04/22 05:22:36;;;;;;;;;;;7.40;93.70;;;;;;5116910;28;19939;-66
2022/04/22 05:25:04;;;;;;;;;;;7.40;93.60;;;;;;5125975;28;20195;-66
2022/04/22 05:27:31;;;;;;;;;;;7.50;93.60;;;;;;5118810;28;19920;-66
2022/04/22 05:32:42;;;;;;;;;;;7.80;92.90;;;;;;5112817;28;19957;-66
2022/04/22 05:35:08;;;;;;;;;;;8.10;92.30;;;;;;5125845;28;19908;-66
2022/04/22 05:37:51;;;;;;;;;;;8.30;92.00;;;;;;5121721;27;19916;-67
2022/04/22 05:40:19;;;;;;;;;;;8.60;91.00;;;;;;5122856;28;19908;-66
2022/04/22 05:42:45;;;;;;;;;;;8.80;90.60;;;;;;5117486;28;20123;-66
2022/04/22 05:45:11;;;;;;;;;;;8.90;90.30;;;;;;5123387;28;19911;-66
2022/04/22 05:47:37;;;;;;;;;;;9.10;90.10;;;;;;5124091;28;20335;-67
2022/04/22 05:50:04;;;;;;;;;;;9.20;90.10;;;;;;5124299;28;19908;-67
2022/04/22 05:52:31;;;;;;;;;;;9.10;89.80;;;;;;5124238;28;19916;-66
2022/04/22 05:54:58;;;;;;;;;;;9.30;88.20;;;;;;5124831;28;20260;-66
2022/04/22 05:57:24;;;;;;;;;;;9.30;88.20;;;;;;5125219;28;19911;-66
2022/04/22 05:59:50;;;;;;;;;;;9.40;88.00;;;;;;5125037;28;19916;-66
2022/04/22 06:02:17;;;;;;;;;;;9.30;88.10;;;;;;5123657;28;19921;-66
2022/04/22 06:04:43;;;;;;;;;;;9.40;88.30;;;;;;5125220;28;19911;-66
2022/04/22 06:07:09;;;;;;;;;;;9.40;88.20;;;;;;5125365;27;19947;-66
2022/04/22 06:12:18;;;;;;;;;;;9.40;87.20;;;;;;5124810;28;20226;-66
2022/04/22 06:14:46;;;;;;;;;;;9.50;88.20;;;;;;5124864;28;19912;-66
2022/04/22 06:17:12;;;;;;;;;;;9.60;87.20;;;;;;5124647;28;19912;-66
2022/04/22 06:19:38;;;;;;;;;;;9.60;87.50;;;;;;5125605;27;20123;-66
2022/04/22 06:22:04;;;;;;;;;;;9.80;85.60;;;;;;5144760;27;19971;-65
2022/04/22 06:24:30;;;;;;;;;;;9.90;85.40;;;;;;5145263;27;19915;-66
2022/04/22 06:26:55;;;;;;;;;;;9.90;84.30;;;;;;5145024;27;19938;-66
2022/04/22 06:29:22;;;;;;;;;;;9.80;85.70;;;;;;5145148;27;20185;-66
2022/04/22 06:31:47;;;;;;;;;;;9.90;85.80;;;;;;5144688;27;19914;-66
2022/04/22 06:34:13;;;;;;;;;;;10.00;85.10;;;;;;5126749;27;19908;-66
2022/04/22 06:36:39;;;;;;;;;;;10.00;85.20;;;;;;5133012;27;19912;-66
2022/04/22 06:39:06;;;;;;;;;;;10.20;85.30;;;;;;5124480;28;19943;-66
2022/04/22 06:47:00;;;;;;;;;;;10.50;82.50;;;;;;5123923;28;19968;-66
2022/04/22 06:49:26;;;;;;;;;;;10.60;83.20;;;;;;5124229;28;19935;-66
2022/04/22 06:51:52;;;;;;;;;;;10.60;82.10;;;;;;5123668;28;19915;-66
2022/04/22 06:54:18;;;;;;;;;;;10.60;81.90;;;;;;5144010;27;19924;-66
2022/04/22 06:56:45;;;;;;;;;;;10.60;81.30;;;;;;5144678;27;19911;-66
2022/04/22 06:59:11;;;;;;;;;;;10.60;82.00;;;;;;5144264;27;19935;-66
2022/04/22 07:01:37;;;;;;;;;;;10.70;81.20;;;;;;5144322;27;19929;-66
2022/04/22 07:04:03;;;;;;;;;;;10.70;81.50;;;;;;5144059;27;19907;-67
2022/04/22 07:06:29;;;;;;;;;;;10.80;81.30;;;;;;5144214;27;19908;-66
2022/04/22 07:08:54;;;;;;;;;;;10.90;80.70;;;;;;5144394;27;19986;-66
2022/04/22 07:11:27;;;;;;;;;;;11.00;80.40;;;;;;5144096;27;20221;-66
2022/04/22 07:13:54;;;;;;;;;;;11.00;79.50;;;;;;5133409;27;19915;-66
2022/04/22 07:16:19;;;;;;;;;;;11.10;79.10;;;;;;5123719;28;19923;-66
2022/04/22 07:18:45;;;;;;;;;;;11.10;79.40;;;;;;5088642;28;19979;-66
2022/04/22 07:21:11;;;;;;;;;;;11.20;78.50;;;;;;5122962;28;20207;-66
2022/04/22 07:23:37;;;;;;;;;;;11.20;78.60;;;;;;5123624;28;19907;-66
2022/04/22 07:26:09;;;;;;;;;;;11.30;78.60;;;;;;5136891;27;19939;-66
2022/04/22 07:28:37;;;;;;;;;;;11.30;77.90;;;;;;5144298;27;19915;-66
2022/04/22 07:31:03;;;;;;;;;;;11.40;77.30;;;;;;5125896;27;19956;-66
2022/04/22 07:33:30;;;;;;;;;;;11.40;78.00;;;;;;5144083;27;19907;-66
2022/04/22 07:35:56;;;;;;;;;;;11.60;77.10;;;;;;5138794;27;19907;-66
2022/04/22 07:38:21;;;;;;;;;;;11.60;76.40;;;;;;5123202;28;19918;-67
2022/04/22 07:40:51;;;;;;;;;;;11.70;76.50;;;;;;5122678;28;19912;-67
2022/04/22 07:48:47;;;;;;;;;;;11.70;76.60;;;;;;5123223;28;19945;-67
2022/04/22 07:51:13;;;;;;;;;;;11.80;76.50;;;;;;5122434;28;19908;-67
2022/04/22 07:53:39;;;;;;;;;;;11.80;75.40;;;;;;5123299;28;19915;-67
2022/04/22 07:56:05;;;;;;;;;;;11.90;75.30;;;;;;5123131;28;19983;-67
2022/04/22 07:58:31;;;;;;;;;;;12.00;74.30;;;;;;5123088;28;19908;-67
2022/04/22 08:00:57;;;;;;;;;;;12.10;73.80;;;;;;5122919;28;19907;-67
2022/04/22 08:03:22;;;;;;;;;;;12.20;73.70;;;;;;5122925;28;19915;-67
2022/04/22 08:05:48;;;;;;;;;;;12.30;74.80;;;;;;5122917;28;19911;-67
2022/04/22 08:08:14;;;;;;;;;;;12.50;71.60;;;;;;5122603;28;19962;-67
2022/04/22 08:10:39;;;;;;;;;;;12.50;70.70;;;;;;5122607;28;20026;-67
2022/04/22 08:13:05;;;;;;;;;;;12.50;70.70;;;;;;5122869;28;19970;-67
2022/04/22 08:15:33;;;;;;;;;;;12.50;71.00;;;;;;5122992;28;19933;-67
2022/04/22 08:17:59;;;;;;;;;;;12.50;71.70;;;;;;5126314;28;20096;-67
2022/04/22 08:20:25;;;;;;;;;;;12.50;73.10;;;;;;5126912;28;19930;-67
2022/04/22 08:22:50;;;;;;;;;;;12.60;72.60;;;;;;5126501;28;19975;-67
2022/04/22 08:25:16;;;;;;;;;;;12.70;70.90;;;;;;5127038;28;19908;-66
2022/04/22 08:27:42;;;;;;;;;;;12.80;71.20;;;;;;5126759;28;19908;-66
2022/04/22 08:30:08;;;;;;;;;;;12.90;70.50;;;;;;5127087;28;19907;-67
2022/04/22 08:32:34;;;;;;;;;;;12.90;71.30;;;;;;5126787;28;20137;-66
2022/04/22 08:34:59;;;;;;;;;;;13.10;71.40;;;;;;5144514;27;19952;-67
2022/04/22 08:37:25;;;;;;;;;;;13.20;68.90;;;;;;5130075;27;19916;-66
2022/04/22 08:39:51;;;;;;;;;;;13.20;69.70;;;;;;5126802;28;19914;-67
2022/04/22 08:42:16;;;;;;;;;;;13.30;67.60;;;;;;5126438;28;19911;-67
2022/04/22 08:44:42;;;;;;;;;;;13.20;67.60;;;;;;5091698;28;19922;-67
2022/04/22 08:50:09;;;;;;;;;;;13.10;70.10;;;;;;5126702;28;19953;-66
2022/04/22 08:52:35;;;;;;;;;;;13.20;70.50;;;;;;5126111;28;20130;-68
2022/04/22 08:55:02;;;;;;;;;;;13.30;68.20;;;;;;5125942;28;19912;-66
2022/04/22 08:57:28;;;;;;;;;;;13.30;68.40;;;;;;5116629;28;19918;-67
2022/04/22 09:00:01;;;;;;;;;;;13.30;68.60;;;;;;5115459;28;19912;-66
2022/04/22 09:02:27;;;;;;;;;;;13.50;69.50;;;;;;5114620;28;19916;-67
2022/04/22 09:04:52;;;;;;;;;;;13.60;68.70;;;;;;5108473;27;19950;-67
2022/04/22 09:07:19;;;;;;;;;;;13.70;67.70;;;;;;5131352;27;19912;-67
2022/04/22 09:09:49;;;;;;;;;;;13.90;69.20;;;;;;5126055;28;19919;-67
2022/04/22 09:12:19;;;;;;;;;;;14.10;68.40;;;;;;5125526;28;19969;-67
2022/04/22 09:14:46;;;;;;;;;;;14.20;66.10;;;;;;5105973;28;19916;-67
2022/04/22 09:17:14;;;;;;;;;;;14.20;66.00;;;;;;5104608;28;19912;-67
2022/04/22 09:19:41;;;;;;;;;;;14.40;66.70;;;;;;5087490;28;19924;-67
2022/04/22 09:22:07;;;;;;;;;;;14.40;67.70;;;;;;5104987;28;20222;-67
2022/04/22 09:24:32;;;;;;;;;;;14.60;66.30;;;;;;5105430;28;19908;-67
2022/04/22 09:27:05;;;;;;;;;;;14.80;64.70;;;;;;5070342;28;20215;-67
2022/04/22 09:29:52;;;;;;;;;;;14.90;64.00;;;;;;5105600;28;19939;-67
2022/04/22 09:32:25;;;;;;;;;;;15.00;63.90;;;;;;5105104;28;19919;-67
2022/04/22 09:34:51;;;;;;;;;;;15.10;62.00;;;;;;5105277;28;19908;-67
2022/04/22 09:42:56;;;;;;;;;;;15.40;61.50;;;;;;5145969;27;19968;-66
2022/04/22 09:45:34;;;;;;;;;;;15.50;61.00;;;;;;5144660;27;20206;-67
2022/04/22 09:48:00;;;;;;;;;;;15.50;60.30;;;;;;5125209;28;19915;-67
2022/04/22 09:50:46;;;;;;;;;;;15.70;61.00;;;;;;5125474;28;20088;-67
2022/04/22 09:53:14;;;;;;;;;;;15.70;59.40;;;;;;5125218;28;19939;-67
2022/04/22 09:55:53;;;;;;;;;;;15.50;59.10;;;;;;5125218;28;19923;-67
2022/04/22 09:58:22;;;;;;;;;;;15.50;62.20;;;;;;5125314;28;19918;-67
2022/04/22 10:00:53;;;;;;;;;;;15.60;60.20;;;;;;5125003;28;20115;-67
2022/04/22 10:03:19;;;;;;;;;;;15.70;60.90;;;;;;5107612;28;20079;-67
2022/04/22 10:05:45;;;;;;;;;;;15.70;59.50;;;;;;5124555;28;20003;-67
2022/04/22 10:08:11;;;;;;;;;;;15.70;58.30;;;;;;5105367;28;19908;-67
2022/04/22 10:10:38;;;;;;;;;;;15.70;60.10;;;;;;5116802;27;19946;-67
2022/04/22 10:13:04;;;;;;;;;;;15.90;63.30;;;;;;5109149;27;19978;-67
2022/04/22 10:15:31;;;;;;;;;;;16.00;62.10;;;;;;5142723;27;19915;-66
2022/04/22 10:17:57;;;;;;;;;;;16.30;60.20;;;;;;5105283;28;19994;-67
2022/04/22 10:20:26;;;;;;;;;;;16.40;58.60;;;;;;5123620;28;19908;-64
2022/04/22 10:22:52;;;;;;;;;;;16.50;60.00;;;;;;5121847;28;20179;-67
2022/04/22 10:25:18;;;;;;;;;;;16.60;56.70;;;;;;5123139;28;19922;-67
2022/04/22 10:27:44;;;;;;;;;;;16.60;56.60;;;;;;5087807;28;19919;-67
2022/04/22 10:30:10;;;;;;;;;;;16.60;57.90;;;;;;5104973;28;19937;-67
2022/04/22 10:32:39;;;;;;;;;;;16.80;56.60;;;;;;5104974;28;19983;-68
2022/04/22 10:35:05;;;;;;;;;;;16.80;55.30;;;;;;5105601;28;20267;-67
2022/04/22 10:37:33;;;;;;;;;;;16.70;55.30;;;;;;5119859;28;20407;-66
2022/04/22 10:39:59;;;;;;;;;;;16.80;57.60;;;;;;5122212;28;19967;-66
2022/04/22 10:42:35;;;;;;;;;;;16.90;55.80;;;;;;5135088;27;20279;-67
2022/04/22 10:47:53;;;;;;;;;;;17.30;54.20;;;;;;5143538;27;20145;-67
2022/04/22 10:50:31;;;;;;;;;;;17.40;53.70;;;;;;5125409;27;19966;-66
2022/04/22 10:53:07;;;;;;;;;;;17.50;53.20;;;;;;5142812;27;19919;-66
2022/04/22 10:55:37;;;;;;;;;;;17.50;52.60;;;;;;5125164;27;19915;-67
2022/04/22 10:58:12;;;;;;;;;;;17.40;52.70;;;;;;5143199;27;19982;-67
2022/04/22 11:00:41;;;;;;;;;;;17.40;52.20;;;;;;5143127;27;19908;-67
2022/04/22 11:03:19;;;;;;;;;;;17.50;53.40;;;;;;5125591;27;19907;-67
2022/04/22 11:06:20;;;;;;;;;;;17.50;51.50;;;;;;5143169;27;19934;-67
2022/04/22 11:08:47;;;;;;;;;;;17.60;51.90;;;;;;5103929;28;19943;-66
2022/04/22 11:11:19;;;;;;;;;;;17.90;52.10;;;;;;5101569;28;20102;-67
2022/04/22 11:13:50;;;;;;;;;;;18.10;52.10;;;;;;5104233;28;19942;-67
2022/04/22 11:16:32;;;;;;;;;;;18.30;50.60;;;;;;5122249;28;19911;-68
2022/04/22 11:19:21;;;;;;;;;;;18.50;50.40;;;;;;5122306;28;19908;-67
2022/04/22 11:21:52;;;;;;;;;;;18.70;54.30;;;;;;5113309;28;19920;-66
2022/04/22 11:24:24;;;;;;;;;;;18.80;49.40;;;;;;5104835;28;20249;-65
2022/04/22 11:26:50;;;;;;;;;;;18.90;49.80;;;;;;5122279;28;20228;-67
2022/04/22 11:29:16;;;;;;;;;;;18.90;50.90;;;;;;5121927;28;19908;-66
2022/04/22 11:31:56;;;;;;;;;;;18.90;49.40;;;;;;5122031;28;19923;-66
2022/04/22 11:34:50;;;;;;;;;;;18.90;49.10;;;;;;5122411;28;20063;-66
2022/04/22 11:37:20;;;;;;;;;;;18.80;49.40;;;;;;5057093;28;19947;-67
2022/04/22 11:39:49;;;;;;;;;;;19.00;49.70;;;;;;5100295;28;19908;-66
2022/04/22 11:42:17;;;;;;;;;;;19.30;49.70;;;;;;5101213;28;19920;-66
2022/04/22 11:45:03;;;;;;;;;;;19.50;50.30;;;;;;5101825;28;20215;-66
2022/04/22 11:47:29;;;;;;;;;;;19.70;48.80;;;;;;5113208;28;20279;-66
2022/04/22 11:49:56;;;;;;;;;;;19.60;48.80;;;;;;5103779;28;19947;-67
2022/04/22 11:52:22;;;;;;;;;;;19.80;49.30;;;;;;5120109;28;19950;-66
2022/04/22 11:54:49;;;;;;;;;;;20.30;49.60;;;;;;5103230;28;19968;-66
2022/04/22 11:57:17;;;;;;;;;;;20.60;46.80;;;;;;5121363;28;19931;-66
2022/04/22 12:05:31;;;;;;;;;;;21.00;46.20;;;;;;5121646;28;19919;-66
2022/04/22 12:05:33;;;;;;;;;;;21.40;45.50;;;;;;5120514;28;19973;-66
2022/04/22 12:08:05;;;;;;;;;;;21.60;43.70;;;;;;5118980;28;19907;-67
2022/04/22 12:10:32;;;;;;;;;;;22.10;45.20;;;;;;5087615;28;19935;-67
2022/04/22 12:13:01;;;;;;;;;;;22.40;42.10;;;;;;5103444;28;19908;-66
2022/04/22 12:15:26;;;;;;;;;;;22.80;40.40;;;;;;5121954;28;19915;-67
2022/04/22 12:17:52;;;;;;;;;;;23.20;39.70;;;;;;5121460;28;19911;-66
2022/04/22 12:20:18;;;;;;;;;;;23.90;40.40;;;;;;5121786;28;19912;-67
2022/04/22 12:22:43;;;;;;;;;;;25.30;37.60;;;;;;5121079;28;19915;-67
2022/04/22 12:25:13;;;;;;;;;;;26.00;35.80;;;;;;5121474;28;20011;-67
2022/04/22 12:27:40;;;;;;;;;;;26.70;36.10;;;;;;5121478;28;19907;-67
2022/04/22 12:30:08;;;;;;;;;;;27.50;33.70;;;;;;5121270;28;20022;-66
2022/04/22 12:32:36;;;;;;;;;;;27.90;32.90;;;;;;5103037;28;19912;-67
2022/04/22 12:35:15;;;;;;;;;;;28.70;31.70;;;;;;5121174;28;19911;-67
2022/04/22 12:37:45;;;;;;;;;;;29.40;31.50;;;;;;5114938;28;20183;-67
2022/04/22 12:40:11;;;;;;;;;;;29.00;30.20;;;;;;5121392;28;19915;-65
2022/04/22 12:42:39;;;;;;;;;;;27.90;31.80;;;;;;5120649;28;19947;-66
2022/04/22 12:53:31;;;;;;;;;;;30.90;30.00;;;;;;5120811;28;19941;-67
2022/04/22 12:56:01;;;;;;;;;;;31.80;30.00;;;;;;5120654;28;19915;-66
2022/04/22 12:58:27;;;;;;;;;;;32.20;28.20;;;;;;5120972;28;19907;-66
2022/04/22 13:00:53;;;;;;;;;;;31.60;28.70;;;;;;5102608;28;19908;-66
2022/04/22 13:03:21;;;;;;;;;;;30.20;29.00;;;;;;5123202;28;20179;-66
2022/04/22 13:05:50;;;;;;;;;;;30.50;29.70;;;;;;5106855;28;19953;-66
2022/04/22 13:08:17;;;;;;;;;;;31.50;28.50;;;;;;5124356;28;19930;-66
2022/04/22 13:10:43;;;;;;;;;;;31.70;28.50;;;;;;5121779;28;20224;-67
2022/04/22 13:13:09;;;;;;;;;;;32.30;28.00;;;;;;5124587;28;19907;-66
2022/04/22 13:15:34;;;;;;;;;;;31.50;28.40;;;;;;5124488;28;19926;-67
2022/04/22 13:18:00;;;;;;;;;;;32.30;29.00;;;;;;5124352;28;19982;-67
2022/04/22 13:20:26;;;;;;;;;;;32.40;27.70;;;;;;5124307;28;20003;-66
2022/04/22 13:22:52;;;;;;;;;;;32.60;27.70;;;;;;5124145;28;20129;-66
2022/04/22 13:25:17;;;;;;;;;;;31.40;28.00;;;;;;5124429;28;20137;-65
2022/04/22 13:27:44;;;;;;;;;;;29.10;29.40;;;;;;5106245;28;19908;-66
2022/04/22 13:30:10;;;;;;;;;;;27.20;30.80;;;;;;5106518;28;19960;-66
2022/04/22 13:32:36;;;;;;;;;;;27.70;31.60;;;;;;5124125;28;19908;-66
2022/04/22 13:35:04;;;;;;;;;;;27.40;31.00;;;;;;5124647;28;19919;-67
2022/04/22 13:37:34;;;;;;;;;;;28.20;31.20;;;;;;5123186;28;19935;-67
2022/04/22 13:40:00;;;;;;;;;;;28.50;30.00;;;;;;5124330;28;20102;-66
2022/04/22 13:42:25;;;;;;;;;;;28.10;30.50;;;;;;5123793;28;19907;-66
2022/04/22 13:53:04;;;;;;;;;;;30.20;29.20;;;;;;5122364;28;19915;-67
2022/04/22 13:55:30;;;;;;;;;;;31.30;28.50;;;;;;5123760;28;19919;-66
2022/04/22 13:57:56;;;;;;;;;;;30.80;28.70;;;;;;5123603;28;20207;-66
2022/04/22 14:00:23;;;;;;;;;;;29.70;29.30;;;;;;5123769;28;19939;-67
2022/04/22 14:02:48;;;;;;;;;;;30.10;29.10;;;;;;5105180;28;19915;-67
2022/04/22 14:05:21;;;;;;;;;;;30.80;28.50;;;;;;5123760;28;19934;-66
2022/04/22 14:07:49;;;;;;;;;;;29.80;28.40;;;;;;5123312;28;19922;-66
2022/04/22 14:10:19;;;;;;;;;;;27.50;30.00;;;;;;5121014;28;19916;-66
2022/04/22 14:12:45;;;;;;;;;;;27.00;31.20;;;;;;5105288;28;19951;-66
2022/04/22 14:15:10;;;;;;;;;;;28.20;30.90;;;;;;5122401;28;19915;-67
2022/04/22 14:17:36;;;;;;;;;;;30.00;29.30;;;;;;5123273;28;20090;-66
2022/04/22 14:20:05;;;;;;;;;;;31.60;28.70;;;;;;5123431;28;19907;-66
2022/04/22 14:22:30;;;;;;;;;;;30.70;28.00;;;;;;5122642;28;19907;-66
2022/04/22 14:24:57;;;;;;;;;;;30.70;28.40;;;;;;5123046;28;19908;-66
2022/04/22 14:27:22;;;;;;;;;;;30.80;28.40;;;;;;5123373;28;20102;-67
2022/04/22 14:29:49;;;;;;;;;;;31.70;28.20;;;;;;5104842;28;19955;-67
2022/04/22 14:32:14;;;;;;;;;;;32.50;27.40;;;;;;5123045;28;19934;-66
2022/04/22 14:34:40;;;;;;;;;;;33.20;27.00;;;;;;5123033;28;19911;-67
2022/04/22 14:37:08;;;;;;;;;;;33.60;26.40;;;;;;5121645;28;19986;-67
2022/04/22 14:39:34;;;;;;;;;;;33.00;26.60;;;;;;5120254;28;19908;-66
2022/04/22 14:42:00;;;;;;;;;;;32.60;26.90;;;;;;5122486;28;19916;-67
2022/04/22 14:44:26;;;;;;;;;;;32.50;27.10;;;;;;5122775;28;20062;-66
2022/04/22 14:46:52;;;;;;;;;;;31.90;27.30;;;;;;5122625;28;19912;-66
2022/04/22 14:49:19;;;;;;;;;;;32.30;26.80;;;;;;5122441;28;19907;-67
2022/04/22 14:51:47;;;;;;;;;;;32.60;26.60;;;;;;5104360;28;19923;-66
2022/04/22 14:54:13;;;;;;;;;;;32.30;26.70;;;;;;5122127;28;19978;-67
2022/04/22 14:56:38;;;;;;;;;;;32.20;27.20;;;;;;5122416;28;19957;-66
2022/04/22 14:59:04;;;;;;;;;;;31.90;27.20;;;;;;5122414;28;19981;-66
2022/04/22 15:01:30;;;;;;;;;;;31.20;27.70;;;;;;5103747;28;19959;-66
2022/04/22 15:03:55;;;;;;;;;;;30.60;27.70;;;;;;5122359;28;19944;-66
2022/04/22 15:06:21;;;;;;;;;;;29.50;28.70;;;;;;5122308;28;19923;-66
2022/04/22 15:08:47;;;;;;;;;;;29.50;28.80;;;;;;5121095;28;20207;-66
2022/04/22 15:11:12;;;;;;;;;;;28.50;29.40;;;;;;5121650;28;20005;-66
2022/04/22 15:13:38;;;;;;;;;;;28.10;29.70;;;;;;5121387;28;19935;-66
2022/04/22 15:16:04;;;;;;;;;;;28.50;29.60;;;;;;5117595;28;19941;-65
2022/04/22 15:24:12;;;;;;;;;;;28.30;29.50;;;;;;5120132;28;20017;-64
2022/04/22 15:26:38;;;;;;;;;;;27.60;30.20;;;;;;5113727;28;19947;-64
2022/04/22 15:29:07;;;;;;;;;;;27.10;31.40;;;;;;5122126;28;20156;-65
2022/04/22 15:31:32;;;;;;;;;;;27.10;30.80;;;;;;5121907;28;19911;-64
2022/04/22 15:33:58;;;;;;;;;;;26.70;30.90;;;;;;5121937;28;20154;-64
2022/04/22 15:36:24;;;;;;;;;;;26.10;31.70;;;;;;5122125;28;20293;-64
2022/04/22 15:38:50;;;;;;;;;;;25.40;32.80;;;;;;5121173;28;20256;-64